ADDS METAR Data INFO
IDs: Format: Raw Decoded Include TAF

Data at: 1157 UTC 23 Jun 2018

KFYM 231135Z AUTO 16005KT 5SM BR SCT005 BKN010 OVC060 22/22 A2989 RMK A01
KFYM 231115Z AUTO 17005KT 6SM BR BKN004 BKN048 OVC070 22/21 A2988 RMK A01
KFYM 231055Z AUTO 19004KT 5SM BR OVC004 22/22 A2989 RMK A01
KFYM 231035Z AUTO 20004KT 7SM BKN005 OVC013 22/21 A2988 RMK A01
KFYM 231015Z AUTO 18003KT 10SM SCT005 BKN014 OVC070 22/21 A2986 RMK A01
KFYM 230955Z AUTO 20005KT 10SM BKN005 OVC010 22/22 A2986 RMK A01
KFYM 230935Z AUTO 20005KT 9SM BKN004 OVC009 22/22 A2985 RMK A01
KFYM 230915Z AUTO 19003KT 9SM BKN004 OVC008 22/22 A2985 RMK A01
KFYM 230855Z AUTO 24004KT 7SM OVC004 22/22 A2985 RMK A01
KFYM 230835Z AUTO 21005KT 7SM OVC004 21/21 A2984 RMK A01
KFYM 230815Z AUTO 22004KT 6SM BR OVC004 21/21 A2983 RMK A01
KFYM 230755Z AUTO 22004KT 3SM BR OVC003 21/21 A2984 RMK A01
KFYM 230735Z AUTO VRB03KT 2SM BR OVC003 21/21 A2984 RMK A01
KFYM 230715Z AUTO 22005KT 1SM BR OVC003 21/21 A2984 RMK A01
KFYM 230655Z AUTO 22005KT 2SM BR OVC003 21/21 A2984 RMK A01
KFYM 230635Z AUTO 22005KT 1SM BR OVC003 21/21 A2985 RMK A01
KFYM 230615Z AUTO 22004KT 3/4SM BR OVC003 21/21 A2984 RMK A01
KFYM 230555Z AUTO 23005KT 1SM BR OVC003 21/21 A2984 RMK A01
KFYM 230535Z AUTO 24004KT 1 1/2SM BR OVC003 21/21 A2984 RMK A01
KFYM 230515Z AUTO VRB03KT 1/2SM BR OVC003 21/21 A2983 RMK A01
KFYM 230455Z AUTO 22004KT 2 1/2SM BR OVC003 21/21 A2983 RMK A01
KFYM 230435Z AUTO 22004KT 6SM BR OVC003 21/21 A2983 RMK A01
KFYM 230415Z AUTO 20004KT 10SM OVC003 21/21 A2983 RMK A01
KFYM 230355Z AUTO 20005KT 10SM OVC003 21/21 A2982 RMK A01
KFYM 230335Z AUTO 18005KT 10SM OVC003 21/21 A2983 RMK A01
KFYM 230315Z AUTO 18005KT 10SM OVC004 21/21 A2982 RMK A01
KFYM 230255Z AUTO 17005KT 10SM SCT004 BKN065 21/21 A2982 RMK A01
KFYM 230235Z AUTO 18005KT 10SM BKN060 22/21 A2982 RMK A01
KFYM 230215Z AUTO 20005KT 10SM FEW045 SCT055 BKN065 22/21 A2982 RMK A01
KFYM 230155Z AUTO 20005KT 10SM BKN046 OVC050 22/21 A2981 RMK A01
KFYM 230135Z AUTO 19006KT 10SM BKN050 OVC055 23/21 A2980 RMK A01
KFYM 230115Z AUTO 22004KT 10SM FEW045 BKN055 23/21 A2979 RMK A01
KFYM 230055Z AUTO 20004KT 10SM BKN049 BKN055 24/22 A2979 RMK A01
KFYM 230035Z AUTO 22005KT 10SM BKN048 BKN120 24/21 A2979 RMK A01
KFYM 230015Z AUTO 22006KT 10SM CLR 25/21 A2978 RMK A01
KFYM 222355Z AUTO 24006KT 10SM CLR 25/21 A2977 RMK A01
KFYM 222335Z AUTO 23009KT 200V260 10SM FEW027 FEW034 25/21 A2977 RMK A01
KFYM 222315Z AUTO 24007KT 10SM FEW026 BKN034 BKN039 25/22 A2976 RMK A01
KFYM 222255Z AUTO 23003KT 10SM BKN035 BKN040 25/23 A2976 RMK A01
KFYM 222235Z AUTO 00000KT 10SM SCT036 SCT046 BKN075 25/23 A2977 RMK A01
KFYM 222215Z AUTO 00000KT 10SM FEW034 SCT040 BKN075 24/22 A2977 RMK A01
KFYM 222155Z AUTO 22005G11KT 10SM FEW006 SCT030 BKN041 23/21 A2977 RMK A01 P0015
KFYM 222135Z AUTO 23010G17KT 190V250 1 1/2SM BR SCT003 BKN030 OVC048 23/22 A2979 RMK A01
KFYM 222115Z AUTO 00000KT 10SM FEW034 FEW046 SCT085 24/22 A2977 RMK A01
KFYM 222055Z AUTO 25004KT 10SM FEW026 SCT035 SCT043 23/22 A2978 RMK A01 P0004
KFYM 222035Z AUTO 30003KT 5SM BR SCT028 BKN037 BKN043 21/20 A2979 RMK A01
KFYM 222015Z AUTO 32009G15KT 3SM BR FEW006 SCT025 BKN033 21/20 A2979 RMK A01
KFYM 221955Z AUTO 00000G10KT 4SM BR SCT004 BKN027 OVC033 20/20 A2980 RMK A01 P0111
KFYM 221935Z AUTO 31010G29KT 280V340 M1/4SM FG OVC003 20/19 A2980 RMK A01
KFYM 221915Z AUTO 00000KT 1 3/4SM BR SCT003 BKN019 OVC029 23/21 A2980 RMK A01
KFYM 221855Z AUTO 28003KT 10SM FEW023 SCT031 BKN046 23/21 A2980 RMK A01
KFYM 221835Z AUTO 26005KT 10SM FEW033 FEW048 FEW080 22/20 A2981 RMK A01
KFYM 221815Z AUTO 20009KT 10SM FEW023 FEW047 SCT095 23/20 A2980 RMK A01
KFYM 221755Z AUTO 20011G19KT 1 1/2SM HZ SCT003 SCT026 BKN038 24/21 A2981 RMK A01 P0005
KFYM 221735Z AUTO 20014G19KT 10SM SCT038 SCT085 28/21 A2980 RMK A01
KFYM 221715Z AUTO 20011G17KT 170V240 10SM FEW038 SCT080 28/21 A2981 RMK A01
KFYM 221655Z AUTO 20012KT 10SM SCT080 28/21 A2983 RMK A01
KFYM 221635Z AUTO 23012G18KT 10SM FEW023 FEW028 BKN085 27/21 A2983 RMK A01
KFYM 221615Z AUTO 22007G13KT 170V250 10SM SCT021 SCT028 BKN080 26/21 A2984 RMK A01
KFYM 221555Z AUTO 21011KT 10SM BKN017 BKN022 BKN080 26/21 A2984 RMK A01
KFYM 221535Z AUTO 19011KT 10SM BKN015 BKN090 25/21 A2984 RMK A01
KFYM 221515Z AUTO 21009KT 10SM BKN014 BKN095 24/21 A2984 RMK A01
KFYM 221455Z AUTO 22009KT 10SM BKN012 BKN095 24/21 A2983 RMK A01
KFYM 221435Z AUTO 21008KT 170V230 10SM BKN011 BKN090 BKN110 23/20 A2984 RMK A01
KFYM 221415Z AUTO 17009KT 10SM SCT010 BKN110 23/20 A2983 RMK A01
KFYM 221355Z AUTO 19008KT 10SM BKN008 BKN012 BKN100 22/20 A2984 RMK A01
KFYM 221335Z AUTO 20007KT 10SM BKN007 OVC012 21/20 A2985 RMK A01
KFYM 221315Z AUTO 21009KT 10SM OVC006 21/20 A2985 RMK A01
KFYM 221255Z AUTO 21007KT 10SM OVC005 21/20 A2985 RMK A01
KFYM 221235Z AUTO 21006KT 10SM OVC005 20/20 A2985 RMK A01
KFYM 221215Z AUTO 22005KT 10SM OVC004 20/20 A2985 RMK A01
KFYM 221155Z AUTO 21008KT 10SM OVC005 20/20 A2984 RMK A01
KFYM 221135Z AUTO 22005KT 10SM OVC005 20/19 A2984 RMK A01
KFYM 221115Z AUTO 20006G12KT 10SM OVC005 20/19 A2984 RMK A01
KFYM 221055Z AUTO 21006KT 10SM OVC005 20/19 A2984 RMK A01
KFYM 221035Z AUTO 21006KT 10SM OVC005 19/19 A2983 RMK A01
KFYM 221015Z AUTO 21006KT 10SM OVC004 19/19 A2983 RMK A01
KFYM 220955Z AUTO 21005KT 10SM OVC005 19/19 A2982 RMK A01
KFYM 220935Z AUTO 20005KT 10SM BKN005 BKN013 19/19 A2981 RMK A01
KFYM 220915Z AUTO 23005KT 10SM SCT006 19/19 A2981 RMK A01
KFYM 220855Z AUTO 22006KT 10SM SCT006 19/19 A2980 RMK A01
KFYM 220835Z AUTO 22006KT 10SM SCT004 20/19 A2981 RMK A01
KFYM 220815Z AUTO 22004KT 10SM BKN006 20/20 A2980 RMK A01
KFYM 220755Z AUTO 23005KT 10SM SCT007 SCT033 BKN070 20/20 A2980 RMK A01
KFYM 220735Z AUTO 11008KT 10SM FEW006 FEW035 BKN070 20/20 A2975 RMK A01
KFYM 220715Z AUTO 22006G16KT 10SM BKN005 BKN008 BKN110 20/20 A2980 RMK A01
KFYM 220655Z AUTO 23006G12KT 10SM OVC004 21/21 A2982 RMK A01 P0001
KFYM 220635Z AUTO 20008KT 10SM OVC005 21/21 A2980 RMK A01
KFYM 220615Z AUTO VRB04G14KT 10SM OVC005 21/21 A2981 RMK A01
KFYM 220555Z AUTO 20008KT 10SM OVC005 21/21 A2983 RMK A01
KFYM 220530Z AUTO 20006KT 10SM BKN006 OVC011 20/20 A2983 RMK A01
KFYM 220515Z AUTO 24005G11KT 10SM FEW003 BKN010 OVC110 20/20 A2984 RMK A01
KFYM 220455Z AUTO 15007KT 10SM SCT003 BKN014 BKN041 20/20 A2982 RMK A01 P0003
KFYM 220435Z AUTO 16006KT 8SM FEW003 BKN020 OVC070 20/20 A2984 RMK A01
KFYM 220415Z AUTO 13005KT 9SM FEW003 SCT022 BKN055 20/20 A2984 RMK A01
KFYM 220355Z AUTO 17007KT 10SM FEW003 SCT039 BKN070 20/20 A2985 RMK A01 P0037
KFYM 220305Z AUTO VRB04G20KT 1 1/2SM BR BKN003 BKN017 OVC030 21/20 A2986 RMK A01
KFYM 220255Z AUTO 33014G20KT 6SM HZ FEW017 SCT031 BKN039 25/22 A2986 RMK A01
KFYM 220235Z AUTO 22005KT 10SM FEW038 SCT085 BKN100 25/22 A2983 RMK A01
KFYM 220215Z AUTO 20008KT 10SM FEW060 FEW090 BKN110 25/22 A2981 RMK A01
KFYM 220155Z AUTO 19008KT 10SM FEW110 25/23 A2981 RMK A01
KFYM 220135Z AUTO 20006KT 10SM FEW031 FEW038 FEW043 26/23 A2982 RMK A01
KFYM 220115Z AUTO 20007KT 10SM SCT037 SCT043 26/23 A2981 RMK A01
KFYM 220055Z AUTO 21006KT 10SM FEW029 SCT036 SCT041 26/22 A2982 RMK A01
KFYM 220035Z AUTO 21007KT 10SM CLR 27/22 A2981 RMK A01
KFYM 220015Z AUTO 22007KT 10SM FEW039 27/22 A2980 RMK A01